createdAt,value
2023-02-11T00:02:29.594Z,1.30
2023-02-11T00:04:58.835Z,1.30
2023-02-11T00:07:29.683Z,1.40
2023-02-11T00:09:59.721Z,1.40
2023-02-11T00:12:29.839Z,1.40
2023-02-11T00:14:59.386Z,1.50
2023-02-11T00:17:29.126Z,1.50
2023-02-11T00:19:58.952Z,1.50
2023-02-11T00:22:29.915Z,1.50
2023-02-11T00:24:59.825Z,1.50
2023-02-11T00:27:29.527Z,1.50
2023-02-11T00:30:00.552Z,1.50
2023-02-11T00:32:30.049Z,1.50
2023-02-11T00:34:59.877Z,1.50
2023-02-11T00:37:30.972Z,1.60
2023-02-11T00:40:00.830Z,1.50
2023-02-11T00:42:30.698Z,1.60
2023-02-11T00:45:00.429Z,1.50
2023-02-11T00:47:30.469Z,1.50
2023-02-11T00:50:01.025Z,1.60
2023-02-11T00:52:32.383Z,1.60
2023-02-11T00:55:02.213Z,1.60
2023-02-11T00:57:31.983Z,1.60
2023-02-11T01:00:01.981Z,1.60
2023-02-11T01:02:31.493Z,1.60
2023-02-11T01:05:01.569Z,1.60
2023-02-11T01:07:32.993Z,1.60
2023-02-11T01:10:02.644Z,1.60
2023-02-11T01:12:35.202Z,1.60
2023-02-11T01:15:06.928Z,1.60
2023-02-11T01:17:37.046Z,1.60
2023-02-11T01:20:07.598Z,1.60
2023-02-11T01:22:39.585Z,1.60
2023-02-11T01:25:09.886Z,1.70
2023-02-11T01:27:40.853Z,1.60
2023-02-11T01:30:13.430Z,1.60
2023-02-11T01:32:43.098Z,1.80
2023-02-11T01:35:12.805Z,1.70
2023-02-11T01:37:44.371Z,1.60
2023-02-11T01:40:17.716Z,1.60
2023-02-11T01:42:50.642Z,1.50
2023-02-11T01:46:01.589Z,1.60
2023-02-11T01:48:35.000Z,1.50
2023-02-11T01:51:09.147Z,1.60
2023-02-11T01:53:59.343Z,1.60
2023-02-11T01:56:49.413Z,1.60
2023-02-11T01:59:25.652Z,1.60
2023-02-11T02:01:58.164Z,1.50
2023-02-11T02:04:34.291Z,1.50
2023-02-11T02:07:09.905Z,1.40
2023-02-11T02:09:45.269Z,1.40
2023-02-11T02:12:15.133Z,1.50
2023-02-11T02:14:45.468Z,1.50
2023-02-11T02:17:24.268Z,1.50
2023-02-11T02:20:24.513Z,1.60
2023-02-11T02:23:20.888Z,1.60
2023-02-11T02:26:12.573Z,1.50
2023-02-11T02:29:18.216Z,1.60
2023-02-11T02:32:00.314Z,1.70
2023-02-11T02:34:37.019Z,1.70
2023-02-11T02:37:12.205Z,1.60
2023-02-11T02:39:42.426Z,1.60
2023-02-11T02:42:13.138Z,1.50
2023-02-11T02:44:48.559Z,1.60
2023-02-11T02:47:18.299Z,1.70
2023-02-11T02:49:49.265Z,1.70
2023-02-11T02:52:25.767Z,1.60
2023-02-11T02:55:13.269Z,1.60
2023-02-11T02:58:07.970Z,1.70
2023-02-11T03:00:45.075Z,1.70
2023-02-11T03:03:24.360Z,1.70
2023-02-11T03:06:03.464Z,1.70
2023-02-11T03:08:39.211Z,1.50
2023-02-11T03:11:11.439Z,1.50
2023-02-11T03:13:43.822Z,1.40
2023-02-11T03:16:19.260Z,1.20
2023-02-11T03:18:57.395Z,1.10
2023-02-11T03:21:29.479Z,1.20
2023-02-11T03:24:05.048Z,1.10
2023-02-11T03:26:40.465Z,1.10
2023-02-11T03:29:17.421Z,1.20
2023-02-11T03:31:54.500Z,1.20
2023-02-11T03:34:30.566Z,1.00
2023-02-11T03:37:06.624Z,1.00
2023-02-11T03:39:40.545Z,1.00
2023-02-11T03:42:13.824Z,1.10
2023-02-11T03:44:47.051Z,1.10
2023-02-11T03:47:20.920Z,1.10
2023-02-11T03:49:52.815Z,1.10
2023-02-11T03:52:25.908Z,1.10
2023-02-11T03:55:01.280Z,1.00
2023-02-11T03:57:31.146Z,1.00
2023-02-11T04:00:02.048Z,1.00
2023-02-11T04:02:34.399Z,1.00
2023-02-11T04:05:07.821Z,1.10
2023-02-11T04:07:38.742Z,1.20
2023-02-11T04:10:07.766Z,1.20
2023-02-11T04:12:37.286Z,1.20
2023-02-11T04:15:08.355Z,1.30
2023-02-11T04:17:38.655Z,1.40
2023-02-11T04:20:09.375Z,1.40
2023-02-11T04:22:40.564Z,1.40
2023-02-11T04:25:11.866Z,1.40
2023-02-11T04:27:41.629Z,1.40
2023-02-11T04:30:13.125Z,1.50
2023-02-11T04:32:42.731Z,1.50
2023-02-11T04:35:12.520Z,1.40
2023-02-11T04:37:43.612Z,1.50
2023-02-11T04:40:13.874Z,1.40
2023-02-11T04:42:43.691Z,1.40
2023-02-11T04:45:13.527Z,1.60
2023-02-11T04:47:43.261Z,1.50
2023-02-11T04:50:12.947Z,1.40
2023-02-11T04:52:44.083Z,1.50
2023-02-11T04:55:13.867Z,1.50
2023-02-11T04:57:43.696Z,1.40
2023-02-11T05:00:14.949Z,1.50
2023-02-11T05:02:44.787Z,1.70
2023-02-11T05:05:14.644Z,1.60
2023-02-11T05:07:45.834Z,1.30
2023-02-11T05:10:17.259Z,1.80
2023-02-11T05:12:51.020Z,1.80
2023-02-11T05:15:20.807Z,1.80
2023-02-11T05:17:50.624Z,1.80
2023-02-11T05:20:20.304Z,1.90
2023-02-11T05:22:51.721Z,2.00
2023-02-11T05:25:21.715Z,2.10
2023-02-11T05:27:51.581Z,1.90
2023-02-11T05:30:21.141Z,1.70
2023-02-11T05:32:50.937Z,1.70
2023-02-11T05:35:20.585Z,1.70
2023-02-11T05:37:51.870Z,1.70
2023-02-11T05:40:21.484Z,1.70
2023-02-11T05:42:51.284Z,1.70
2023-02-11T05:45:20.990Z,1.70
2023-02-11T05:47:50.747Z,1.70
2023-02-11T05:50:20.645Z,1.70
2023-02-11T05:52:51.627Z,1.80
2023-02-11T05:55:21.718Z,1.90
2023-02-11T05:57:51.553Z,1.90
2023-02-11T06:00:22.178Z,1.80
2023-02-11T06:02:52.012Z,1.90
2023-02-11T06:05:20.137Z,1.90
2023-02-11T06:07:51.099Z,2.00
2023-02-11T06:10:22.646Z,1.90
2023-02-11T06:12:52.175Z,1.70
2023-02-11T06:15:21.978Z,1.80
2023-02-11T06:17:51.723Z,1.80
2023-02-11T06:20:21.651Z,1.80
2023-02-11T06:22:52.611Z,1.80
2023-02-11T06:25:22.178Z,1.80
2023-02-11T06:27:51.998Z,1.80
2023-02-11T06:30:21.643Z,1.70
2023-02-11T06:32:51.492Z,1.60
2023-02-11T06:35:21.440Z,1.60
2023-02-11T06:37:53.854Z,1.70
2023-02-11T06:40:23.612Z,1.60
2023-02-11T06:42:53.444Z,1.50
2023-02-11T06:45:23.312Z,1.50
2023-02-11T06:47:54.878Z,1.40
2023-02-11T06:50:24.767Z,1.30
2023-02-11T06:52:55.933Z,1.20
2023-02-11T06:55:25.843Z,1.20
2023-02-11T06:57:55.509Z,1.30
2023-02-11T07:00:26.477Z,1.30
2023-02-11T07:02:56.273Z,1.20
2023-02-11T07:05:26.111Z,1.20
2023-02-11T07:07:57.913Z,1.20
2023-02-11T07:10:27.643Z,1.20
2023-02-11T07:12:58.841Z,1.10
2023-02-11T07:15:28.549Z,1.40
2023-02-11T07:17:58.307Z,1.80
2023-02-11T07:20:28.960Z,1.70
2023-02-11T07:23:00.819Z,1.60
2023-02-11T07:25:30.575Z,1.70
2023-02-11T07:28:00.411Z,1.70
2023-02-11T07:30:30.220Z,1.80
2023-02-11T07:33:00.018Z,1.80
2023-02-11T07:35:29.782Z,1.90
2023-02-11T07:38:00.872Z,1.80
2023-02-11T07:40:31.596Z,1.80
2023-02-11T07:43:01.319Z,1.90
2023-02-11T07:45:31.054Z,1.90
2023-02-11T07:48:00.873Z,2.10
2023-02-11T07:50:30.643Z,2.10
2023-02-11T07:53:01.786Z,2.10
2023-02-11T07:55:31.644Z,2.20
2023-02-11T07:58:01.415Z,2.30
2023-02-11T08:00:31.305Z,2.40
2023-02-11T08:03:01.209Z,2.50
2023-02-11T08:05:31.176Z,2.70
2023-02-11T08:08:02.318Z,2.40
2023-02-11T08:10:32.190Z,2.80
2023-02-11T08:13:02.134Z,2.80
2023-02-11T08:15:31.933Z,3.20
2023-02-11T08:18:01.641Z,3.00
2023-02-11T08:20:31.413Z,3.00
2023-02-11T08:23:02.645Z,3.20
2023-02-11T08:25:33.401Z,3.30
2023-02-11T08:28:02.988Z,3.60
2023-02-11T08:30:32.934Z,3.70
2023-02-11T08:33:02.686Z,3.70
2023-02-11T08:35:33.102Z,3.60
2023-02-11T08:38:03.996Z,3.80
2023-02-11T08:40:33.860Z,4.00
2023-02-11T08:43:05.712Z,4.10
2023-02-11T08:45:36.526Z,4.30
2023-02-11T08:48:06.393Z,4.30
2023-02-11T08:50:38.620Z,4.40
2023-02-11T08:53:09.898Z,4.50
2023-02-11T08:55:39.775Z,4.60
2023-02-11T08:58:09.697Z,4.90
2023-02-11T09:00:40.662Z,5.00
2023-02-11T09:03:10.597Z,5.00
2023-02-11T09:05:44.129Z,5.10
2023-02-11T09:08:15.682Z,5.30
2023-02-11T09:10:45.643Z,5.30
2023-02-11T09:13:16.418Z,5.40
2023-02-11T09:15:48.957Z,5.30
2023-02-11T09:18:18.679Z,5.30
2023-02-11T09:20:48.748Z,5.10
2023-02-11T09:23:19.989Z,5.00
2023-02-11T09:25:50.111Z,4.90
2023-02-11T09:28:20.131Z,5.00
2023-02-11T09:30:50.540Z,5.00
2023-02-11T09:33:20.842Z,5.00
2023-02-11T09:35:50.631Z,5.00
2023-02-11T09:38:21.724Z,4.80
2023-02-11T09:40:51.856Z,4.80
2023-02-11T09:43:24.143Z,4.90
2023-02-11T09:45:55.961Z,5.00
2023-02-11T09:48:26.256Z,5.10
2023-02-11T09:50:59.682Z,5.20
2023-02-11T09:53:33.317Z,5.40
2023-02-11T09:56:10.629Z,5.20
2023-02-11T09:58:43.431Z,5.10
2023-02-11T10:01:25.706Z,4.90
2023-02-11T10:04:06.069Z,4.80
2023-02-11T10:06:40.653Z,4.90
2023-02-11T10:09:44.287Z,4.70
2023-02-11T10:12:23.248Z,4.50
2023-02-11T10:15:07.941Z,4.50
2023-02-11T10:17:44.053Z,4.50
2023-02-11T10:20:26.499Z,4.60
2023-02-11T10:22:59.415Z,4.80
2023-02-11T10:25:35.689Z,4.90
2023-02-11T10:28:13.551Z,5.00
2023-02-11T10:30:51.006Z,5.30
2023-02-11T10:33:27.882Z,5.40
2023-02-11T10:35:57.713Z,5.50
2023-02-11T10:38:28.534Z,5.40
2023-02-11T10:40:59.734Z,5.50
2023-02-11T10:43:32.116Z,5.50
2023-02-11T10:46:04.044Z,5.60
2023-02-11T10:48:44.191Z,5.60
2023-02-11T10:51:19.485Z,5.60
2023-02-11T10:53:50.486Z,5.50
2023-02-11T10:56:26.789Z,5.50
2023-02-11T10:59:03.528Z,5.30
2023-02-11T11:01:46.281Z,5.30
2023-02-11T11:04:36.633Z,5.50
2023-02-11T11:07:20.094Z,5.40
2023-02-11T11:09:55.542Z,5.40
2023-02-11T11:12:48.347Z,5.40
2023-02-11T11:15:24.260Z,5.40
2023-02-11T11:18:20.937Z,5.30
2023-02-11T11:21:00.213Z,5.40
2023-02-11T11:23:30.924Z,5.50
2023-02-11T11:26:03.974Z,5.70
2023-02-11T11:28:38.932Z,5.50
2023-02-11T11:31:16.281Z,5.50
2023-02-11T11:33:47.164Z,5.40
2023-02-11T11:36:21.132Z,5.40
2023-02-11T11:38:55.257Z,5.60
2023-02-11T11:41:28.626Z,5.70
2023-02-11T11:44:00.417Z,5.80
2023-02-11T11:46:31.392Z,5.90
2023-02-11T11:49:18.780Z,6.00
2023-02-11T11:51:52.888Z,5.90
2023-02-11T11:54:25.555Z,6.00
2023-02-11T11:57:01.530Z,6.00
2023-02-11T11:59:32.906Z,6.10
2023-02-11T12:02:19.988Z,5.80
2023-02-11T12:05:01.921Z,5.80
2023-02-11T12:07:42.084Z,5.80
2023-02-11T12:10:40.746Z,5.90
2023-02-11T12:13:20.673Z,6.00
2023-02-11T12:15:58.546Z,5.80
2023-02-11T12:18:44.932Z,5.80
2023-02-11T12:21:26.022Z,5.90
2023-02-11T12:24:06.817Z,5.80
2023-02-11T12:26:42.579Z,5.80
2023-02-11T12:29:21.030Z,5.80
2023-02-11T12:32:01.182Z,5.90
2023-02-11T12:35:16.825Z,6.00
2023-02-11T12:38:02.379Z,6.00
2023-02-11T12:40:42.571Z,6.00
2023-02-11T12:43:23.200Z,6.00
2023-02-11T12:46:03.071Z,5.80
2023-02-11T12:49:00.281Z,5.70
2023-02-11T12:51:37.492Z,5.90
2023-02-11T12:54:25.474Z,6.00
2023-02-11T12:56:59.118Z,6.00
2023-02-11T12:59:48.663Z,6.00
2023-02-11T13:02:23.778Z,6.00
2023-02-11T13:04:58.368Z,5.90
2023-02-11T13:07:34.184Z,5.80
2023-02-11T13:10:10.369Z,5.80
2023-02-11T13:13:01.023Z,5.80
2023-02-11T13:15:31.795Z,5.70
2023-02-11T13:18:11.108Z,5.60
2023-02-11T13:20:48.702Z,5.70
2023-02-11T13:23:25.723Z,5.60
2023-02-11T13:26:00.507Z,5.70
2023-02-11T13:28:41.373Z,5.80
2023-02-11T13:31:13.105Z,5.80
2023-02-11T13:33:44.402Z,5.90
2023-02-11T13:36:22.756Z,5.90
2023-02-11T13:39:07.980Z,5.80
2023-02-11T13:41:43.529Z,5.70
2023-02-11T13:44:24.651Z,5.60
2023-02-11T13:46:55.911Z,5.60
2023-02-11T13:49:26.765Z,5.60
2023-02-11T13:51:59.568Z,5.60
2023-02-11T13:54:31.943Z,5.60
2023-02-11T13:57:27.133Z,5.60
2023-02-11T13:59:58.138Z,5.70
2023-02-11T14:02:50.503Z,5.90
2023-02-11T14:05:57.190Z,5.80
2023-02-11T14:08:46.577Z,5.70
2023-02-11T14:11:46.170Z,5.70
2023-02-11T14:14:25.442Z,5.80
2023-02-11T14:17:30.845Z,5.80
2023-02-11T14:20:04.623Z,5.80
2023-02-11T14:22:46.877Z,5.80
2023-02-11T14:25:23.221Z,5.70
2023-02-11T14:27:58.254Z,5.60
2023-02-11T14:30:55.939Z,5.60
2023-02-11T14:33:53.183Z,5.70
2023-02-11T14:36:53.814Z,5.70
2023-02-11T14:39:34.376Z,5.60
2023-02-11T14:42:06.138Z,5.70
2023-02-11T14:44:36.572Z,5.70
2023-02-11T14:47:06.595Z,5.70
2023-02-11T14:49:41.310Z,5.70
2023-02-11T14:52:23.585Z,5.80
2023-02-11T14:54:58.757Z,5.80
2023-02-11T14:57:30.788Z,5.80
2023-02-11T15:00:03.222Z,5.80
2023-02-11T15:02:34.635Z,5.80
2023-02-11T15:05:19.193Z,5.90
2023-02-11T15:07:51.543Z,5.80
2023-02-11T15:10:29.421Z,5.80
2023-02-11T15:13:01.850Z,5.70
2023-02-11T15:15:34.595Z,5.60
2023-02-11T15:18:06.173Z,5.60
2023-02-11T15:20:37.033Z,5.60
2023-02-11T15:23:10.479Z,5.60
2023-02-11T15:25:52.778Z,5.50
2023-02-11T15:28:28.883Z,5.50
2023-02-11T15:31:04.387Z,5.60
2023-02-11T15:33:34.275Z,5.60
2023-02-11T15:36:05.096Z,5.60
2023-02-11T15:38:35.079Z,5.60
2023-02-11T15:41:07.550Z,5.60
2023-02-11T15:43:50.712Z,5.50
2023-02-11T15:46:23.975Z,5.50
2023-02-11T15:48:55.410Z,5.50
2023-02-11T15:51:31.200Z,5.50
2023-02-11T15:54:02.706Z,5.40
2023-02-11T15:56:43.139Z,5.40
2023-02-11T15:59:20.149Z,5.50
2023-02-11T16:01:50.988Z,5.40
2023-02-11T16:04:23.513Z,5.50
2023-02-11T16:06:54.962Z,5.40
2023-02-11T16:09:33.151Z,5.50
2023-02-11T16:12:07.396Z,5.50
2023-02-11T16:14:39.313Z,5.50
2023-02-11T16:17:12.989Z,5.40
2023-02-11T16:19:48.363Z,5.40
2023-02-11T16:22:21.482Z,5.30
2023-02-11T16:24:54.080Z,5.40
2023-02-11T16:27:28.556Z,5.40
2023-02-11T16:30:00.522Z,5.30
2023-02-11T16:32:31.713Z,5.30
2023-02-11T16:35:02.464Z,5.30
2023-02-11T16:37:35.320Z,5.30
2023-02-11T16:40:05.281Z,5.30
2023-02-11T16:42:35.104Z,5.30
2023-02-11T16:45:07.226Z,5.30
2023-02-11T16:47:43.451Z,5.30
2023-02-11T16:50:21.308Z,5.40
2023-02-11T16:52:52.266Z,5.40
2023-02-11T16:55:22.359Z,5.40
2023-02-11T16:57:52.205Z,5.40
2023-02-11T17:00:24.916Z,5.40
2023-02-11T17:02:54.511Z,5.30
2023-02-11T17:05:26.903Z,5.20
2023-02-11T17:07:56.820Z,5.20
2023-02-11T17:10:27.024Z,5.20
2023-02-11T17:12:56.822Z,5.20
2023-02-11T17:15:28.064Z,5.20
2023-02-11T17:17:57.852Z,5.20
2023-02-11T17:20:28.066Z,5.20
2023-02-11T17:22:58.824Z,5.20
2023-02-11T17:25:31.700Z,5.10
2023-02-11T17:28:01.519Z,5.10
2023-02-11T17:30:32.955Z,5.10
2023-02-11T17:33:02.549Z,5.10
2023-02-11T17:35:32.502Z,5.10
2023-02-11T17:38:02.308Z,5.10
2023-02-11T17:40:32.180Z,5.20
2023-02-11T17:43:03.137Z,5.20
2023-02-11T17:45:34.443Z,5.20
2023-02-11T17:48:04.357Z,5.20
2023-02-11T17:50:36.102Z,5.20
2023-02-11T17:53:05.668Z,5.20
2023-02-11T17:55:35.928Z,5.30
2023-02-11T17:58:05.696Z,5.20
2023-02-11T18:00:36.630Z,5.30
2023-02-11T18:03:06.710Z,5.20
2023-02-11T18:05:38.076Z,5.20
2023-02-11T18:08:09.178Z,5.20
2023-02-11T18:10:41.728Z,5.20
2023-02-11T18:13:11.318Z,5.30
2023-02-11T18:15:42.433Z,5.30
2023-02-11T18:18:12.399Z,5.30
2023-02-11T18:20:43.745Z,5.30
2023-02-11T18:23:13.564Z,5.30
2023-02-11T18:25:45.067Z,5.30
2023-02-11T18:28:14.980Z,5.20
2023-02-11T18:30:46.590Z,5.20
2023-02-11T18:33:16.267Z,5.20
2023-02-11T18:35:50.260Z,5.30
2023-02-11T18:38:20.363Z,5.30
2023-02-11T18:40:52.247Z,5.30
2023-02-11T18:43:22.300Z,5.30
2023-02-11T18:45:54.243Z,5.30
2023-02-11T18:48:24.174Z,5.20
2023-02-11T18:50:54.460Z,5.20
2023-02-11T18:53:25.172Z,5.20
2023-02-11T18:55:55.910Z,5.20
2023-02-11T18:58:25.728Z,5.20
2023-02-11T19:00:56.966Z,5.20
2023-02-11T19:03:26.757Z,5.20
2023-02-11T19:05:56.533Z,5.20
2023-02-11T19:08:26.485Z,5.20
2023-02-11T19:10:56.037Z,5.20
2023-02-11T19:13:26.021Z,5.20
2023-02-11T19:15:57.731Z,5.20
2023-02-11T19:18:27.877Z,5.20
2023-02-11T19:20:57.804Z,5.20
2023-02-11T19:23:27.542Z,5.10
2023-02-11T19:25:57.453Z,5.20
2023-02-11T19:28:28.894Z,5.20
2023-02-11T19:31:05.652Z,5.10
2023-02-11T19:33:35.369Z,5.10
2023-02-11T19:36:04.879Z,5.20
2023-02-11T19:38:34.888Z,5.20
2023-02-11T19:41:05.069Z,5.20
2023-02-11T19:43:41.069Z,5.00
2023-02-11T19:46:12.667Z,5.00
2023-02-11T19:48:42.474Z,5.00
2023-02-11T19:51:13.377Z,5.00
2023-02-11T19:53:43.950Z,4.90
2023-02-11T19:56:14.366Z,4.90
2023-02-11T19:58:45.794Z,4.90
2023-02-11T20:01:18.962Z,4.90
2023-02-11T20:03:51.261Z,5.00
2023-02-11T20:06:24.030Z,5.00
2023-02-11T20:08:58.189Z,5.00
2023-02-11T20:11:29.137Z,5.00
2023-02-11T20:14:02.029Z,5.00
2023-02-11T20:16:47.674Z,4.90
2023-02-11T20:19:20.159Z,4.90
2023-02-11T20:21:52.709Z,4.80
2023-02-11T20:24:23.111Z,4.80
2023-02-11T20:26:56.862Z,4.80
2023-02-11T20:29:27.338Z,4.80
2023-02-11T20:31:58.673Z,4.80
2023-02-11T20:34:29.408Z,4.90
2023-02-11T20:36:59.278Z,4.90
2023-02-11T20:39:29.907Z,4.90
2023-02-11T20:41:59.483Z,4.90
2023-02-11T20:44:29.422Z,4.90
2023-02-11T20:47:04.558Z,4.90
2023-02-11T20:49:34.504Z,4.70
2023-02-11T20:52:04.576Z,4.70
2023-02-11T20:54:34.535Z,4.80
2023-02-11T20:57:04.442Z,4.70
2023-02-11T20:59:34.124Z,4.70
2023-02-11T21:02:13.137Z,4.80
2023-02-11T21:04:42.801Z,4.80
2023-02-11T21:07:12.619Z,4.90
2023-02-11T21:09:42.353Z,4.90
2023-02-11T21:12:14.440Z,4.90
2023-02-11T21:14:44.002Z,4.80
2023-02-11T21:17:15.225Z,4.80
2023-02-11T21:19:45.204Z,4.80
2023-02-11T21:22:14.904Z,4.70
2023-02-11T21:24:44.802Z,4.70
2023-02-11T21:27:14.443Z,4.70
2023-02-11T21:29:53.757Z,4.70
2023-02-11T21:32:25.369Z,4.80
2023-02-11T21:34:55.247Z,4.80
2023-02-11T21:37:25.362Z,4.80
2023-02-11T21:39:55.132Z,4.80
2023-02-11T21:42:24.898Z,4.80
2023-02-11T21:44:54.684Z,4.70
2023-02-11T21:47:25.694Z,4.70
2023-02-11T21:49:55.557Z,4.80
2023-02-11T21:52:25.392Z,4.80
2023-02-11T21:54:55.142Z,4.80
2023-02-11T21:57:25.063Z,4.80
2023-02-11T21:59:54.818Z,4.70
2023-02-11T22:02:25.847Z,4.70
2023-02-11T22:04:55.727Z,4.70
2023-02-11T22:07:28.006Z,4.70
2023-02-11T22:09:59.239Z,4.70
2023-02-11T22:12:29.109Z,4.70
2023-02-11T22:14:58.874Z,4.70
2023-02-11T22:17:30.185Z,4.70
2023-02-11T22:20:00.364Z,4.60
2023-02-11T22:22:30.624Z,4.60
2023-02-11T22:25:01.874Z,4.60
2023-02-11T22:27:31.538Z,4.70
2023-02-11T22:30:02.678Z,4.70
2023-02-11T22:32:34.003Z,4.70
2023-02-11T22:35:03.815Z,4.70
2023-02-11T22:37:33.697Z,4.70
2023-02-11T22:40:03.484Z,4.70
2023-02-11T22:42:34.760Z,4.60
2023-02-11T22:45:04.552Z,4.50
2023-02-11T22:47:36.201Z,4.50
2023-02-11T22:50:06.261Z,4.60
2023-02-11T22:52:37.638Z,4.60
2023-02-11T22:55:08.536Z,4.60
2023-02-11T22:57:38.412Z,4.60
2023-02-11T23:00:09.937Z,4.60
2023-02-11T23:02:41.163Z,4.70
2023-02-11T23:05:11.966Z,4.70
2023-02-11T23:07:41.972Z,4.70
2023-02-11T23:10:14.547Z,4.70
2023-02-11T23:12:44.211Z,4.70
2023-02-11T23:15:13.843Z,4.70
2023-02-11T23:17:45.045Z,4.80
2023-02-11T23:20:15.384Z,4.80
2023-02-11T23:22:45.096Z,4.80
2023-02-11T23:25:14.984Z,4.80
2023-02-11T23:27:44.770Z,4.80
2023-02-11T23:30:15.989Z,4.80
2023-02-11T23:32:47.258Z,4.70
2023-02-11T23:35:22.154Z,4.70
2023-02-11T23:37:53.153Z,4.60
2023-02-11T23:40:23.334Z,4.70
2023-02-11T23:42:53.298Z,4.70
2023-02-11T23:45:23.611Z,4.80
2023-02-11T23:47:54.568Z,4.80
2023-02-11T23:50:24.306Z,4.80
2023-02-11T23:52:54.065Z,4.80
2023-02-11T23:55:23.905Z,4.60
2023-02-11T23:57:53.815Z,4.50
